sensor_id;sensor_type;location;lat;lon;timestamp;pressure;altitude;pressure_sealevel;temperature;humidity
7441;BME280;29616;51.950;8.572;2023-10-08T00:02:27;100517.13;;;18.53;100.00
7441;BME280;29616;51.950;8.572;2023-10-08T00:04:56;100542.19;;;18.66;100.00
7441;BME280;29616;51.950;8.572;2023-10-08T00:07:30;100551.75;;;18.63;100.00
7441;BME280;29616;51.950;8.572;2023-10-08T00:10:03;100547.00;;;18.57;100.00
7441;BME280;29616;51.950;8.572;2023-10-08T00:12:33;100557.88;;;18.59;100.00
7441;BME280;29616;51.950;8.572;2023-10-08T00:15:04;100559.13;;;18.56;100.00
7441;BME280;29616;51.950;8.572;2023-10-08T00:17:37;100555.06;;;18.44;100.00
7441;BME280;29616;51.950;8.572;2023-10-08T00:20:08;100550.22;;;18.46;100.00
7441;BME280;29616;51.950;8.572;2023-10-08T00:22:37;100579.09;;;18.52;100.00
7441;BME280;29616;51.950;8.572;2023-10-08T00:25:09;100561.69;;;18.43;100.00
7441;BME280;29616;51.950;8.572;2023-10-08T00:27:40;100572.25;;;18.40;100.00
7441;BME280;29616;51.950;8.572;2023-10-08T00:30:13;100560.44;;;18.31;100.00
7441;BME280;29616;51.950;8.572;2023-10-08T00:32:47;100568.47;;;18.41;100.00
7441;BME280;29616;51.950;8.572;2023-10-08T00:35:18;100569.13;;;18.43;100.00
7441;BME280;29616;51.950;8.572;2023-10-08T00:37:49;100536.88;;;18.21;100.00
7441;BME280;29616;51.950;8.572;2023-10-08T00:40:20;100557.97;;;18.36;100.00
7441;BME280;29616;51.950;8.572;2023-10-08T00:42:51;100568.19;;;18.36;100.00
7441;BME280;29616;51.950;8.572;2023-10-08T00:45:25;100542.69;;;18.26;100.00
7441;BME280;29616;51.950;8.572;2023-10-08T00:47:58;100581.16;;;18.35;100.00
7441;BME280;29616;51.950;8.572;2023-10-08T00:50:30;100579.25;;;18.36;100.00
7441;BME280;29616;51.950;8.572;2023-10-08T00:53:10;100575.25;;;18.38;100.00
7441;BME280;29616;51.950;8.572;2023-10-08T00:55:51;100593.66;;;18.46;100.00
7441;BME280;29616;51.950;8.572;2023-10-08T00:58:28;100584.69;;;18.44;100.00
7441;BME280;29616;51.950;8.572;2023-10-08T01:01:03;100579.63;;;18.33;100.00
7441;BME280;29616;51.950;8.572;2023-10-08T01:03:40;100593.16;;;18.42;100.00
7441;BME280;29616;51.950;8.572;2023-10-08T01:06:14;100595.75;;;18.44;100.00
7441;BME280;29616;51.950;8.572;2023-10-08T01:08:46;100581.72;;;18.31;100.00
7441;BME280;29616;51.950;8.572;2023-10-08T01:11:23;100603.28;;;18.35;100.00
7441;BME280;29616;51.950;8.572;2023-10-08T01:14:01;100593.06;;;18.21;100.00
7441;BME280;29616;51.950;8.572;2023-10-08T01:16:35;100607.19;;;18.26;100.00
7441;BME280;29616;51.950;8.572;2023-10-08T01:19:08;100607.75;;;18.22;100.00
7441;BME280;29616;51.950;8.572;2023-10-08T01:21:42;100610.41;;;18.15;100.00
7441;BME280;29616;51.950;8.572;2023-10-08T01:24:15;100595.94;;;17.98;100.00
7441;BME280;29616;51.950;8.572;2023-10-08T01:26:47;100613.56;;;17.97;100.00
7441;BME280;29616;51.950;8.572;2023-10-08T01:29:18;100622.22;;;17.94;100.00
7441;BME280;29616;51.950;8.572;2023-10-08T01:31:53;100620.97;;;17.82;100.00
7441;BME280;29616;51.950;8.572;2023-10-08T01:34:25;100657.56;;;17.39;100.00
7441;BME280;29616;51.950;8.572;2023-10-08T01:37:03;100620.59;;;16.39;100.00
7441;BME280;29616;51.950;8.572;2023-10-08T01:39:39;100629.88;;;15.75;100.00
7441;BME280;29616;51.950;8.572;2023-10-08T01:42:11;100656.34;;;15.28;100.00
7441;BME280;29616;51.950;8.572;2023-10-08T01:44:47;100661.13;;;15.10;100.00
7441;BME280;29616;51.950;8.572;2023-10-08T01:47:18;100676.38;;;14.88;100.00
7441;BME280;29616;51.950;8.572;2023-10-08T01:49:54;100676.50;;;14.71;100.00
7441;BME280;29616;51.950;8.572;2023-10-08T01:52:34;100656.50;;;14.61;100.00
7441;BME280;29616;51.950;8.572;2023-10-08T01:55:05;100672.25;;;14.50;100.00
7441;BME280;29616;51.950;8.572;2023-10-08T01:57:40;100676.00;;;14.41;100.00
7441;BME280;29616;51.950;8.572;2023-10-08T02:00:13;100683.44;;;14.23;100.00
7441;BME280;29616;51.950;8.572;2023-10-08T02:02:46;100713.63;;;14.15;100.00
7441;BME280;29616;51.950;8.572;2023-10-08T02:05:17;100719.06;;;14.07;100.00
7441;BME280;29616;51.950;8.572;2023-10-08T02:07:47;100702.13;;;13.94;100.00
7441;BME280;29616;51.950;8.572;2023-10-08T02:10:18;100721.91;;;13.80;100.00
7441;BME280;29616;51.950;8.572;2023-10-08T02:12:49;100719.41;;;13.69;100.00
7441;BME280;29616;51.950;8.572;2023-10-08T02:15:20;100708.75;;;13.66;100.00
7441;BME280;29616;51.950;8.572;2023-10-08T02:17:50;100685.13;;;13.55;100.00
7441;BME280;29616;51.950;8.572;2023-10-08T02:20:20;100671.47;;;13.63;100.00
7441;BME280;29616;51.950;8.572;2023-10-08T02:22:49;100661.53;;;13.45;100.00
7441;BME280;29616;51.950;8.572;2023-10-08T02:25:21;100673.53;;;13.44;100.00
7441;BME280;29616;51.950;8.572;2023-10-08T02:27:52;100644.03;;;13.28;100.00
7441;BME280;29616;51.950;8.572;2023-10-08T02:30:23;100657.00;;;13.35;100.00
7441;BME280;29616;51.950;8.572;2023-10-08T02:32:53;100669.06;;;13.43;100.00
7441;BME280;29616;51.950;8.572;2023-10-08T02:35:23;100654.56;;;13.32;100.00
7441;BME280;29616;51.950;8.572;2023-10-08T02:37:53;100648.03;;;13.33;100.00
7441;BME280;29616;51.950;8.572;2023-10-08T02:40:25;100657.31;;;13.32;100.00
7441;BME280;29616;51.950;8.572;2023-10-08T02:42:55;100669.47;;;13.30;100.00
7441;BME280;29616;51.950;8.572;2023-10-08T02:45:27;100697.13;;;13.36;100.00
7441;BME280;29616;51.950;8.572;2023-10-08T02:47:57;100719.56;;;13.32;100.00
7441;BME280;29616;51.950;8.572;2023-10-08T02:50:26;100697.63;;;13.32;100.00
7441;BME280;29616;51.950;8.572;2023-10-08T02:52:58;100643.13;;;13.19;100.00
7441;BME280;29616;51.950;8.572;2023-10-08T02:55:33;100613.28;;;13.07;100.00
7441;BME280;29616;51.950;8.572;2023-10-08T02:58:02;100655.66;;;13.22;100.00
7441;BME280;29616;51.950;8.572;2023-10-08T03:00:31;100634.09;;;12.82;100.00
7441;BME280;29616;51.950;8.572;2023-10-08T03:03:03;100726.16;;;13.21;100.00
7441;BME280;29616;51.950;8.572;2023-10-08T03:05:47;100721.38;;;13.23;100.00
7441;BME280;29616;51.950;8.572;2023-10-08T03:08:19;100715.34;;;13.20;100.00
7441;BME280;29616;51.950;8.572;2023-10-08T03:10:52;100698.13;;;13.18;100.00
7441;BME280;29616;51.950;8.572;2023-10-08T03:13:25;100664.22;;;12.92;100.00
7441;BME280;29616;51.950;8.572;2023-10-08T03:15:58;100709.34;;;13.07;100.00
7441;BME280;29616;51.950;8.572;2023-10-08T03:18:36;100714.97;;;13.05;100.00
7441;BME280;29616;51.950;8.572;2023-10-08T03:21:11;100708.19;;;13.00;100.00
7441;BME280;29616;51.950;8.572;2023-10-08T03:24:09;100729.09;;;13.10;100.00
7441;BME280;29616;51.950;8.572;2023-10-08T03:27:00;100737.75;;;13.15;100.00
7441;BME280;29616;51.950;8.572;2023-10-08T03:29:37;100728.69;;;13.05;100.00
7441;BME280;29616;51.950;8.572;2023-10-08T03:32:14;100728.06;;;12.84;100.00
7441;BME280;29616;51.950;8.572;2023-10-08T03:34:48;100729.91;;;12.66;100.00
7441;BME280;29616;51.950;8.572;2023-10-08T03:37:24;100745.53;;;12.56;100.00
7441;BME280;29616;51.950;8.572;2023-10-08T03:39:59;100752.50;;;12.41;100.00
7441;BME280;29616;51.950;8.572;2023-10-08T03:42:51;100767.25;;;12.30;100.00
7441;BME280;29616;51.950;8.572;2023-10-08T03:45:24;100749.13;;;12.10;100.00
7441;BME280;29616;51.950;8.572;2023-10-08T03:48:12;100752.56;;;12.12;100.00
7441;BME280;29616;51.950;8.572;2023-10-08T03:50:44;100766.44;;;12.10;100.00
7441;BME280;29616;51.950;8.572;2023-10-08T03:53:22;100777.38;;;12.10;100.00
7441;BME280;29616;51.950;8.572;2023-10-08T03:55:53;100767.88;;;12.05;100.00
7441;BME280;29616;51.950;8.572;2023-10-08T03:58:26;100729.25;;;11.79;100.00
7441;BME280;29616;51.950;8.572;2023-10-08T04:00:58;100773.22;;;11.97;100.00
7441;BME280;29616;51.950;8.572;2023-10-08T04:03:36;100788.38;;;11.91;100.00
7441;BME280;29616;51.950;8.572;2023-10-08T04:06:27;100791.53;;;11.87;100.00
7441;BME280;29616;51.950;8.572;2023-10-08T04:09:07;100772.22;;;11.69;100.00
7441;BME280;29616;51.950;8.572;2023-10-08T04:11:52;100787.66;;;11.89;100.00
7441;BME280;29616;51.950;8.572;2023-10-08T04:14:27;100784.16;;;11.87;100.00
7441;BME280;29616;51.950;8.572;2023-10-08T04:16:57;100790.38;;;11.89;100.00
7441;BME280;29616;51.950;8.572;2023-10-08T04:19:27;100789.06;;;11.93;100.00
7441;BME280;29616;51.950;8.572;2023-10-08T04:22:01;100772.94;;;11.81;100.00
7441;BME280;29616;51.950;8.572;2023-10-08T04:24:32;100760.66;;;11.85;100.00
7441;BME280;29616;51.950;8.572;2023-10-08T04:27:05;100772.94;;;11.90;100.00
7441;BME280;29616;51.950;8.572;2023-10-08T04:29:39;100760.97;;;11.91;100.00
7441;BME280;29616;51.950;8.572;2023-10-08T04:32:12;100787.50;;;11.81;100.00
7441;BME280;29616;51.950;8.572;2023-10-08T04:34:51;100787.50;;;11.81;100.00
7441;BME280;29616;51.950;8.572;2023-10-08T04:37:26;100777.84;;;11.77;100.00
7441;BME280;29616;51.950;8.572;2023-10-08T04:40:00;100782.16;;;11.80;100.00
7441;BME280;29616;51.950;8.572;2023-10-08T04:42:31;100772.47;;;11.66;100.00
7441;BME280;29616;51.950;8.572;2023-10-08T04:45:06;100769.63;;;11.77;100.00
7441;BME280;29616;51.950;8.572;2023-10-08T04:47:41;100784.47;;;11.75;100.00
7441;BME280;29616;51.950;8.572;2023-10-08T04:50:13;100756.66;;;11.70;100.00
7441;BME280;29616;51.950;8.572;2023-10-08T04:52:45;100759.97;;;11.73;100.00
7441;BME280;29616;51.950;8.572;2023-10-08T04:55:26;100768.63;;;11.78;100.00
7441;BME280;29616;51.950;8.572;2023-10-08T04:57:57;100786.91;;;11.78;100.00
7441;BME280;29616;51.950;8.572;2023-10-08T05:00:30;100796.41;;;11.74;100.00
7441;BME280;29616;51.950;8.572;2023-10-08T05:03:12;100761.09;;;11.61;100.00
7441;BME280;29616;51.950;8.572;2023-10-08T05:05:45;100800.47;;;11.79;100.00
7441;BME280;29616;51.950;8.572;2023-10-08T05:08:38;100805.81;;;11.81;100.00
7441;BME280;29616;51.950;8.572;2023-10-08T05:11:16;100816.19;;;11.77;100.00
7441;BME280;29616;51.950;8.572;2023-10-08T05:14:07;100814.88;;;11.72;100.00
7441;BME280;29616;51.950;8.572;2023-10-08T05:16:45;100844.59;;;11.76;100.00
7441;BME280;29616;51.950;8.572;2023-10-08T05:19:28;100869.34;;;11.84;100.00
7441;BME280;29616;51.950;8.572;2023-10-08T05:22:18;100856.66;;;11.74;100.00
7441;BME280;29616;51.950;8.572;2023-10-08T05:25:07;100871.69;;;11.89;100.00
7441;BME280;29616;51.950;8.572;2023-10-08T05:27:42;100862.88;;;11.85;100.00
7441;BME280;29616;51.950;8.572;2023-10-08T05:30:27;100851.50;;;11.71;100.00
7441;BME280;29616;51.950;8.572;2023-10-08T05:33:13;100882.78;;;11.87;100.00
7441;BME280;29616;51.950;8.572;2023-10-08T05:35:53;100881.78;;;11.88;100.00
7441;BME280;29616;51.950;8.572;2023-10-08T05:38:38;100887.84;;;11.92;100.00
7441;BME280;29616;51.950;8.572;2023-10-08T05:41:16;100892.16;;;11.94;100.00
7441;BME280;29616;51.950;8.572;2023-10-08T05:43:57;100898.22;;;11.98;100.00
7441;BME280;29616;51.950;8.572;2023-10-08T05:46:53;100914.38;;;12.01;100.00
7441;BME280;29616;51.950;8.572;2023-10-08T05:49:42;100915.25;;;12.01;100.00
7441;BME280;29616;51.950;8.572;2023-10-08T05:52:23;100907.16;;;11.90;100.00
7441;BME280;29616;51.950;8.572;2023-10-08T05:54:59;100915.50;;;11.98;100.00
7441;BME280;29616;51.950;8.572;2023-10-08T05:57:59;100906.84;;;12.03;100.00
7441;BME280;29616;51.950;8.572;2023-10-08T06:00:41;100895.63;;;11.96;100.00
7441;BME280;29616;51.950;8.572;2023-10-08T06:03:28;100914.38;;;11.91;100.00
7441;BME280;29616;51.950;8.572;2023-10-08T06:06:20;100924.44;;;11.91;100.00
7441;BME280;29616;51.950;8.572;2023-10-08T06:08:50;100918.38;;;11.87;100.00
7441;BME280;29616;51.950;8.572;2023-10-08T06:11:50;100918.66;;;11.84;100.00
7441;BME280;29616;51.950;8.572;2023-10-08T06:14:37;100915.78;;;11.86;100.00
7441;BME280;29616;51.950;8.572;2023-10-08T06:17:36;100918.38;;;11.87;100.00
7441;BME280;29616;51.950;8.572;2023-10-08T06:20:27;100941.47;;;11.94;100.00
7441;BME280;29616;51.950;8.572;2023-10-08T06:23:00;100930.19;;;11.78;100.00
7441;BME280;29616;51.950;8.572;2023-10-08T06:25:35;100953.88;;;11.98;100.00
7441;BME280;29616;51.950;8.572;2023-10-08T06:28:15;100948.66;;;11.95;100.00
7441;BME280;29616;51.950;8.572;2023-10-08T06:30:49;100967.16;;;12.12;100.00
7441;BME280;29616;51.950;8.572;2023-10-08T06:33:23;100963.72;;;12.10;100.00
7441;BME280;29616;51.950;8.572;2023-10-08T06:35:54;100874.19;;;11.52;100.00
7441;BME280;29616;51.950;8.572;2023-10-08T06:38:35;100969.19;;;12.10;100.00
7441;BME280;29616;51.950;8.572;2023-10-08T06:41:08;100958.47;;;11.98;100.00
7441;BME280;29616;51.950;8.572;2023-10-08T06:44:02;100982.47;;;12.05;100.00
7441;BME280;29616;51.950;8.572;2023-10-08T06:46:33;100988.06;;;12.04;100.00
7441;BME280;29616;51.950;8.572;2023-10-08T06:49:07;100973.50;;;12.03;100.00
7441;BME280;29616;51.950;8.572;2023-10-08T06:51:42;100987.34;;;12.11;100.00
7441;BME280;29616;51.950;8.572;2023-10-08T06:54:13;100997.47;;;12.21;100.00
7441;BME280;29616;51.950;8.572;2023-10-08T06:56:47;100999.19;;;12.22;100.00
7441;BME280;29616;51.950;8.572;2023-10-08T06:59:21;101004.97;;;12.28;100.00
7441;BME280;29616;51.950;8.572;2023-10-08T07:01:52;100960.06;;;12.00;100.00
7441;BME280;29616;51.950;8.572;2023-10-08T07:04:21;101030.09;;;12.33;100.00
7441;BME280;29616;51.950;8.572;2023-10-08T07:06:53;101020.28;;;12.21;100.00
7441;BME280;29616;51.950;8.572;2023-10-08T07:09:25;101035.28;;;12.27;100.00
7441;BME280;29616;51.950;8.572;2023-10-08T07:12:03;101046.53;;;12.24;100.00
7441;BME280;29616;51.950;8.572;2023-10-08T07:14:36;101045.06;;;12.20;100.00
7441;BME280;29616;51.950;8.572;2023-10-08T07:17:06;101039.56;;;12.20;100.00
7441;BME280;29616;51.950;8.572;2023-10-08T07:19:38;101040.78;;;12.27;100.00
7441;BME280;29616;51.950;8.572;2023-10-08T07:22:09;100998.91;;;12.05;100.00
7441;BME280;29616;51.950;8.572;2023-10-08T07:24:52;101040.50;;;12.49;100.00
7441;BME280;29616;51.950;8.572;2023-10-08T07:27:21;101007.88;;;12.65;100.00
7441;BME280;29616;51.950;8.572;2023-10-08T07:29:58;101020.72;;;12.84;100.00
7441;BME280;29616;51.950;8.572;2023-10-08T07:32:32;101017.72;;;12.77;100.00
7441;BME280;29616;51.950;8.572;2023-10-08T07:35:03;101009.91;;;13.01;100.00
7441;BME280;29616;51.950;8.572;2023-10-08T07:37:50;101016.09;;;13.22;100.00
7441;BME280;29616;51.950;8.572;2023-10-08T07:40:22;101031.84;;;13.20;100.00
7441;BME280;29616;51.950;8.572;2023-10-08T07:42:57;101030.22;;;13.37;100.00
7441;BME280;29616;51.950;8.572;2023-10-08T07:45:37;101027.81;;;13.61;100.00
7441;BME280;29616;51.950;8.572;2023-10-08T07:48:06;101027.19;;;14.04;100.00
7441;BME280;29616;51.950;8.572;2023-10-08T07:50:42;101010.41;;;14.07;100.00
7441;BME280;29616;51.950;8.572;2023-10-08T07:53:13;101011.00;;;14.01;100.00
7441;BME280;29616;51.950;8.572;2023-10-08T07:55:48;101040.66;;;13.97;100.00
7441;BME280;29616;51.950;8.572;2023-10-08T07:58:19;101035.25;;;14.15;100.00
7441;BME280;29616;51.950;8.572;2023-10-08T08:00:49;101047.56;;;14.11;100.00
7441;BME280;29616;51.950;8.572;2023-10-08T08:03:23;101057.44;;;14.04;100.00
7441;BME280;29616;51.950;8.572;2023-10-08T08:05:53;101039.19;;;14.03;100.00
7441;BME280;29616;51.950;8.572;2023-10-08T08:08:24;101053.25;;;14.00;100.00
7441;BME280;29616;51.950;8.572;2023-10-08T08:10:57;101072.06;;;13.95;100.00
7441;BME280;29616;51.950;8.572;2023-10-08T08:13:33;101076.09;;;14.01;100.00
7441;BME280;29616;51.950;8.572;2023-10-08T08:16:03;101080.00;;;14.08;100.00
7441;BME280;29616;51.950;8.572;2023-10-08T08:18:44;101074.03;;;14.12;100.00
7441;BME280;29616;51.950;8.572;2023-10-08T08:21:18;101081.31;;;14.04;100.00
7441;BME280;29616;51.950;8.572;2023-10-08T08:23:49;101059.44;;;13.75;100.00
7441;BME280;29616;51.950;8.572;2023-10-08T08:26:21;101055.75;;;13.57;100.00
7441;BME280;29616;51.950;8.572;2023-10-08T08:29:08;101059.38;;;13.94;100.00
7441;BME280;29616;51.950;8.572;2023-10-08T08:31:45;101054.59;;;14.23;100.00
7441;BME280;29616;51.950;8.572;2023-10-08T08:34:15;101057.84;;;14.64;100.00
7441;BME280;29616;51.950;8.572;2023-10-08T08:36:48;101064.63;;;14.42;100.00
7441;BME280;29616;51.950;8.572;2023-10-08T08:39:18;101063.19;;;14.38;100.00
7441;BME280;29616;51.950;8.572;2023-10-08T08:42:03;101073.53;;;14.53;100.00
7441;BME280;29616;51.950;8.572;2023-10-08T08:44:38;101093.66;;;14.72;100.00
7441;BME280;29616;51.950;8.572;2023-10-08T08:47:14;101084.53;;;14.53;100.00
7441;BME280;29616;51.950;8.572;2023-10-08T08:49:47;101123.50;;;14.49;100.00
7441;BME280;29616;51.950;8.572;2023-10-08T08:52:19;101107.41;;;14.54;100.00
7441;BME280;29616;51.950;8.572;2023-10-08T08:54:49;101126.75;;;14.62;100.00
7441;BME280;29616;51.950;8.572;2023-10-08T08:57:20;101143.00;;;15.00;100.00
7441;BME280;29616;51.950;8.572;2023-10-08T08:59:53;101149.88;;;15.14;100.00
7441;BME280;29616;51.950;8.572;2023-10-08T09:02:24;101151.31;;;15.44;100.00
7441;BME280;29616;51.950;8.572;2023-10-08T09:04:56;101141.44;;;16.02;100.00
7441;BME280;29616;51.950;8.572;2023-10-08T09:07:26;101089.69;;;15.62;100.00
7441;BME280;29616;51.950;8.572;2023-10-08T09:10:04;101123.19;;;15.75;100.00
7441;BME280;29616;51.950;8.572;2023-10-08T09:12:38;101117.53;;;15.51;100.00
7441;BME280;29616;51.950;8.572;2023-10-08T09:15:10;101153.25;;;15.43;100.00
7441;BME280;29616;51.950;8.572;2023-10-08T09:17:39;101155.91;;;15.53;100.00
7441;BME280;29616;51.950;8.572;2023-10-08T09:20:09;101147.41;;;15.90;100.00
7441;BME280;29616;51.950;8.572;2023-10-08T09:22:40;101143.47;;;16.18;100.00
7441;BME280;29616;51.950;8.572;2023-10-08T09:25:11;101140.44;;;16.37;100.00
7441;BME280;29616;51.950;8.572;2023-10-08T09:27:44;101132.06;;;17.05;100.00
7441;BME280;29616;51.950;8.572;2023-10-08T09:30:16;101112.09;;;17.27;100.00
7441;BME280;29616;51.950;8.572;2023-10-08T09:32:48;101088.69;;;18.57;100.00
7441;BME280;29616;51.950;8.572;2023-10-08T09:35:23;101054.69;;;17.93;100.00
7441;BME280;29616;51.950;8.572;2023-10-08T09:37:54;101067.19;;;17.57;100.00
7441;BME280;29616;51.950;8.572;2023-10-08T09:40:26;101064.56;;;16.91;100.00
7441;BME280;29616;51.950;8.572;2023-10-08T09:42:59;101075.34;;;16.52;100.00
7441;BME280;29616;51.950;8.572;2023-10-08T09:45:30;101117.38;;;16.46;100.00
7441;BME280;29616;51.950;8.572;2023-10-08T09:48:01;101078.88;;;15.95;100.00
7441;BME280;29616;51.950;8.572;2023-10-08T09:50:38;101088.22;;;15.76;100.00
7441;BME280;29616;51.950;8.572;2023-10-08T09:53:10;101121.25;;;15.94;100.00
7441;BME280;29616;51.950;8.572;2023-10-08T09:55:49;101125.91;;;15.93;100.00
7441;BME280;29616;51.950;8.572;2023-10-08T09:58:22;101161.91;;;16.17;100.00
7441;BME280;29616;51.950;8.572;2023-10-08T10:00:56;101135.88;;;16.20;100.00
7441;BME280;29616;51.950;8.572;2023-10-08T10:03:27;101174.44;;;16.12;100.00
7441;BME280;29616;51.950;8.572;2023-10-08T10:05:56;101176.66;;;16.08;100.00
7441;BME280;29616;51.950;8.572;2023-10-08T10:08:30;101188.47;;;16.26;100.00
7441;BME280;29616;51.950;8.572;2023-10-08T10:11:04;101186.81;;;16.08;100.00
7441;BME280;29616;51.950;8.572;2023-10-08T10:13:39;101197.47;;;16.03;100.00
7441;BME280;29616;51.950;8.572;2023-10-08T10:16:11;101182.75;;;15.94;100.00
7441;BME280;29616;51.950;8.572;2023-10-08T10:18:44;101152.75;;;16.17;100.00
7441;BME280;29616;51.950;8.572;2023-10-08T10:21:32;101184.84;;;17.76;100.00
7441;BME280;29616;51.950;8.572;2023-10-08T10:24:03;101186.41;;;18.65;100.00
7441;BME280;29616;51.950;8.572;2023-10-08T10:26:36;101183.22;;;19.15;100.00
7441;BME280;29616;51.950;8.572;2023-10-08T10:29:20;101173.78;;;19.24;100.00
7441;BME280;29616;51.950;8.572;2023-10-08T10:31:53;101162.19;;;20.12;100.00
7441;BME280;29616;51.950;8.572;2023-10-08T10:34:24;101183.22;;;20.06;100.00
7441;BME280;29616;51.950;8.572;2023-10-08T10:36:59;101168.03;;;20.90;100.00
7441;BME280;29616;51.950;8.572;2023-10-08T10:39:38;101153.91;;;21.06;100.00
7441;BME280;29616;51.950;8.572;2023-10-08T10:42:11;101157.97;;;20.16;100.00
7441;BME280;29616;51.950;8.572;2023-10-08T10:44:52;101121.06;;;19.32;100.00
7441;BME280;29616;51.950;8.572;2023-10-08T10:47:23;101120.78;;;20.39;100.00
7441;BME280;29616;51.950;8.572;2023-10-08T10:49:56;101151.81;;;20.20;100.00
7441;BME280;29616;51.950;8.572;2023-10-08T10:52:40;101122.09;;;18.86;100.00
7441;BME280;29616;51.950;8.572;2023-10-08T10:55:23;101133.84;;;18.88;100.00
7441;BME280;29616;51.950;8.572;2023-10-08T10:58:00;101159.88;;;19.32;100.00
7441;BME280;29616;51.950;8.572;2023-10-08T11:00:43;101132.06;;;18.95;100.00
7441;BME280;29616;51.950;8.572;2023-10-08T11:03:16;101142.72;;;19.60;100.00
7441;BME280;29616;51.950;8.572;2023-10-08T11:05:49;101147.50;;;19.20;100.00
7441;BME280;29616;51.950;8.572;2023-10-08T11:08:21;101142.06;;;19.04;100.00
7441;BME280;29616;51.950;8.572;2023-10-08T11:10:53;101150.19;;;18.75;100.00
7441;BME280;29616;51.950;8.572;2023-10-08T11:13:26;101147.16;;;18.93;100.00
7441;BME280;29616;51.950;8.572;2023-10-08T11:16:08;101150.84;;;20.50;100.00
7441;BME280;29616;51.950;8.572;2023-10-08T11:18:44;101143.09;;;21.32;100.00
7441;BME280;29616;51.950;8.572;2023-10-08T11:21:14;101129.84;;;20.77;100.00
7441;BME280;29616;51.950;8.572;2023-10-08T11:23:46;101096.16;;;20.36;100.00
7441;BME280;29616;51.950;8.572;2023-10-08T11:26:24;101112.28;;;19.52;100.00
7441;BME280;29616;51.950;8.572;2023-10-08T11:29:10;101118.16;;;19.03;100.00
7441;BME280;29616;51.950;8.572;2023-10-08T11:31:49;101141.53;;;18.78;100.00
7441;BME280;29616;51.950;8.572;2023-10-08T11:34:22;101141.28;;;18.57;100.00
7441;BME280;29616;51.950;8.572;2023-10-08T11:37:11;101110.97;;;18.16;100.00
7441;BME280;29616;51.950;8.572;2023-10-08T11:39:48;101156.22;;;18.32;100.00
7441;BME280;29616;51.950;8.572;2023-10-08T11:42:18;101137.31;;;17.88;100.00
7441;BME280;29616;51.950;8.572;2023-10-08T11:45:09;101153.72;;;17.98;100.00
7441;BME280;29616;51.950;8.572;2023-10-08T11:47:55;101137.31;;;17.80;100.00
7441;BME280;29616;51.950;8.572;2023-10-08T11:50:26;101134.38;;;17.58;100.00
7441;BME280;29616;51.950;8.572;2023-10-08T11:53:04;101125.56;;;17.54;100.00
7441;BME280;29616;51.950;8.572;2023-10-08T11:55:35;101114.66;;;17.44;100.00
7441;BME280;29616;51.950;8.572;2023-10-08T11:58:07;101139.72;;;17.67;100.00
7441;BME280;29616;51.950;8.572;2023-10-08T12:00:38;101112.81;;;17.53;100.00
7441;BME280;29616;51.950;8.572;2023-10-08T12:03:17;101097.22;;;17.76;100.00
7441;BME280;29616;51.950;8.572;2023-10-08T12:05:48;101130.88;;;18.12;100.00
7441;BME280;29616;51.950;8.572;2023-10-08T12:08:29;101129.09;;;18.19;100.00
7441;BME280;29616;51.950;8.572;2023-10-08T12:11:00;101098.50;;;18.12;100.00
7441;BME280;29616;51.950;8.572;2023-10-08T12:13:30;101113.13;;;17.74;100.00
7441;BME280;29616;51.950;8.572;2023-10-08T12:16:02;101092.56;;;17.52;100.00
7441;BME280;29616;51.950;8.572;2023-10-08T12:18:45;101110.19;;;17.68;100.00
7441;BME280;29616;51.950;8.572;2023-10-08T12:21:17;101109.69;;;17.56;100.00
7441;BME280;29616;51.950;8.572;2023-10-08T12:23:47;101077.53;;;17.31;100.00
7441;BME280;29616;51.950;8.572;2023-10-08T12:26:19;101070.66;;;17.35;100.00
7441;BME280;29616;51.950;8.572;2023-10-08T12:28:49;101086.84;;;17.46;100.00
7441;BME280;29616;51.950;8.572;2023-10-08T12:31:21;101086.53;;;17.65;100.00
7441;BME280;29616;51.950;8.572;2023-10-08T12:33:59;101064.22;;;17.83;100.00
7441;BME280;29616;51.950;8.572;2023-10-08T12:36:30;101067.75;;;18.07;100.00
7441;BME280;29616;51.950;8.572;2023-10-08T12:39:01;101057.16;;;17.80;100.00
7441;BME280;29616;51.950;8.572;2023-10-08T12:41:38;101058.53;;;17.76;100.00
7441;BME280;29616;51.950;8.572;2023-10-08T12:44:10;101057.84;;;17.66;100.00
7441;BME280;29616;51.950;8.572;2023-10-08T12:46:41;101065.81;;;17.45;100.00
7441;BME280;29616;51.950;8.572;2023-10-08T12:49:14;101062.00;;;17.62;100.00
7441;BME280;29616;51.950;8.572;2023-10-08T12:51:43;101063.53;;;17.65;100.00
7441;BME280;29616;51.950;8.572;2023-10-08T12:54:14;101055.78;;;18.15;100.00
7441;BME280;29616;51.950;8.572;2023-10-08T12:56:50;101054.66;;;18.48;100.00
7441;BME280;29616;51.950;8.572;2023-10-08T12:59:23;101056.41;;;18.72;100.00
7441;BME280;29616;51.950;8.572;2023-10-08T13:01:53;101051.72;;;18.34;100.00
7441;BME280;29616;51.950;8.572;2023-10-08T13:04:26;101057.41;;;18.40;100.00
7441;BME280;29616;51.950;8.572;2023-10-08T13:06:58;101044.81;;;19.59;100.00
7441;BME280;29616;51.950;8.572;2023-10-08T13:09:29;101045.22;;;19.85;100.00
7441;BME280;29616;51.950;8.572;2023-10-08T13:11:59;101051.56;;;20.38;100.00
7441;BME280;29616;51.950;8.572;2023-10-08T13:14:29;101052.31;;;21.39;100.00
7441;BME280;29616;51.950;8.572;2023-10-08T13:17:00;101018.03;;;22.22;100.00
7441;BME280;29616;51.950;8.572;2023-10-08T13:19:34;101041.72;;;21.56;100.00
7441;BME280;29616;51.950;8.572;2023-10-08T13:22:05;101040.16;;;20.47;100.00
7441;BME280;29616;51.950;8.572;2023-10-08T13:24:37;101033.84;;;19.66;100.00
7441;BME280;29616;51.950;8.572;2023-10-08T13:27:10;101054.19;;;19.73;100.00
7441;BME280;29616;51.950;8.572;2023-10-08T13:29:43;101040.91;;;20.12;100.00
7441;BME280;29616;51.950;8.572;2023-10-08T13:32:14;101022.47;;;19.90;100.00